ELA weather

Eagle Lake Airport
Eagle Lake, Texas, United States

Public forecast

Using degrees Fahrenheit for public forecast. Weather courtesy of forecast.io.

Current aviation weather report (METAR) for Eagle Lake Airport

Retrieved 2019/12/12 05:35 UTC (9 minutes ago):

KELA 120535Z AUTO 04004KT 10SM CLR 05/03 A3040 RMK AO2 T00490033

Closest aviation forecast (TAF) to Eagle Lake Airport

Closest forecast is Sugar Land Regional Airport, 34.8 nm (64.4 km) E. Retrieved 2019-12-12 00:24 UTC (5 hours ago):

TAF KSGR 112320Z 1200/1224 05004KT P6SM SKC FM121100 05004KT P6SM SCT015 BKN040 FM121700 08005KT P6SM SCT035 BKN250